LELL

Sabadell Airport

Airport
ICAO code
LELL
IATA Code
QSA
Summary
ICAO Region
EUR
ICAO Territory
Location

Sabadell, Catalonia

Serving
Sabadell
Elevation
485 ft
Coordinates
41° 31' 10" N , 2° 6' 16" E
KCC
Metar
Observation
LELL 062130Z AUTO VRB02KT 9999 FEW004 07/01 Q1026
Station
Sabadell
Date/Time
2023-02-06 21:30:00
Wind speed
02 kts
Lowest cloud amount
few clouds
Temperature
7°C
Dew point
1°C
Humidity
65%
QNH
1026 hPa
Weather condition
n/a

Sabadell Airport is located next to the city of Sabadell, 20 km north of Barcelona's city center.

Climatology

Dry-summer subtropical ”Mediterranean" climate (Köppen climate classification Csa) - characterized by hot, dry summers and mild winters. During the summer, subtropical high pressure cells dominate, making rainfall unlikely except for the occasional thunderstorm. In the winter, periodic storms bring rain (snow at higher elevations).

Runways

Designator Length Width Surface Rops
13/31 900 0 UNK No/No

Airport map

Aerial View

SKYbrary Partners:

Safety knowledge contributed by: